Time;durP1;ratioP1;P1;durP2;ratioP2;P2;SDS_P1;SDS_P2;PMS_P1;PMS_P2;Temp;Humidity;BMP_temperature;BMP_pressure;BME280_temperature;BME280_humidity;BME280_pressure;Samples;Min_cycle;Max_cycle;Signal;HPM_P1;HPM_P2
2023/12/15 00:01:31;;;;;;;12.32;4.45;;;8.00;68.30;;;;;;4997698;28;20100;-80
2023/12/15 00:03:56;;;;;;;7.95;3.85;;;7.90;68.20;;;;;;4981424;28;20026;-80
2023/12/15 00:06:22;;;;;;;10.07;3.80;;;7.90;68.20;;;;;;4993845;28;20026;-80
2023/12/15 00:08:48;;;;;;;9.45;3.58;;;7.90;68.20;;;;;;4964667;28;20042;-79
2023/12/15 00:11:14;;;;;;;9.48;3.97;;;7.80;68.10;;;;;;4998050;28;20063;-82
2023/12/15 00:13:41;;;;;;;12.45;4.97;;;7.80;68.10;;;;;;4981486;28;20038;-79
2023/12/15 00:16:07;;;;;;;10.80;3.63;;;7.80;68.10;;;;;;4996366;28;20037;-79
2023/12/15 00:18:33;;;;;;;8.55;4.38;;;7.70;68.00;;;;;;4996203;28;20033;-80
2023/12/15 00:20:59;;;;;;;10.93;4.13;;;7.70;68.00;;;;;;4992768;28;20072;-80
2023/12/15 00:23:26;;;;;;;10.93;3.83;;;7.70;68.10;;;;;;4996982;28;20100;-78
2023/12/15 00:25:52;;;;;;;12.27;5.05;;;7.60;67.90;;;;;;4995822;28;20022;-78
2023/12/15 00:28:18;;;;;;;8.52;4.03;;;7.60;67.90;;;;;;4977473;28;20046;-79
2023/12/15 00:30:44;;;;;;;12.88;3.88;;;7.60;68.20;;;;;;4995085;28;20523;-79
2023/12/15 00:33:10;;;;;;;10.35;4.28;;;7.60;68.00;;;;;;4997160;28;20117;-80
2023/12/15 00:35:36;;;;;;;16.08;4.55;;;7.50;67.80;;;;;;4995521;28;20145;-80
2023/12/15 00:38:03;;;;;;;8.95;4.10;;;7.50;67.80;;;;;;4995399;28;20468;-80
2023/12/15 00:40:29;;;;;;;11.63;4.13;;;7.50;67.80;;;;;;4992856;28;20030;-79
2023/12/15 00:42:55;;;;;;;8.63;3.80;;;7.40;67.70;;;;;;4984748;28;20655;-79
2023/12/15 00:45:20;;;;;;;8.63;3.58;;;7.40;67.70;;;;;;5000711;28;20436;-79
2023/12/15 00:47:47;;;;;;;12.23;4.28;;;7.40;67.70;;;;;;5001418;28;20269;-81
2023/12/15 00:50:13;;;;;;;9.18;4.03;;;7.40;67.80;;;;;;5000476;28;20045;-81
2023/12/15 00:52:45;;;;;;;10.93;3.70;;;7.30;67.60;;;;;;4997906;28;20857;-81
2023/12/15 00:55:11;;;;;;;9.35;3.75;;;7.30;67.60;;;;;;4997231;28;20037;-81
2023/12/15 00:57:37;;;;;;;9.95;4.05;;;7.20;67.50;;;;;;5001682;28;20461;-81
2023/12/15 01:00:03;;;;;;;10.32;4.05;;;7.20;67.50;;;;;;5005445;28;20040;-80
2023/12/15 01:02:29;;;;;;;9.73;4.40;;;7.20;67.60;;;;;;4998308;28;20058;-81
2023/12/15 01:04:55;;;;;;;9.52;4.82;;;7.20;67.60;;;;;;4999330;28;20164;-80
2023/12/15 01:07:22;;;;;;;11.10;4.00;;;7.10;67.50;;;;;;4998558;28;20066;-81
2023/12/15 01:09:48;;;;;;;8.00;3.92;;;7.10;67.50;;;;;;4999349;28;20032;-80
2023/12/15 01:12:14;;;;;;;9.75;4.03;;;7.10;67.50;;;;;;4997801;28;20033;-81
2023/12/15 01:14:40;;;;;;;12.10;4.53;;;7.10;67.50;;;;;;4999999;28;20409;-81
2023/12/15 01:17:07;;;;;;;7.80;4.35;;;7.00;67.30;;;;;;5001343;28;20453;-80
2023/12/15 01:19:33;;;;;;;12.50;4.07;;;7.00;67.30;;;;;;4994718;28;20041;-79
2023/12/15 01:21:59;;;;;;;9.05;3.95;;;7.00;67.40;;;;;;4999909;28;20034;-80
2023/12/15 01:24:24;;;;;;;10.50;3.65;;;6.90;67.20;;;;;;4997713;28;20026;-79
2023/12/15 01:26:51;;;;;;;7.03;3.35;;;6.90;67.30;;;;;;4997402;28;20583;-80
2023/12/15 01:29:16;;;;;;;6.10;3.55;;;6.90;67.30;;;;;;4992656;28;20124;-81
2023/12/15 01:31:42;;;;;;;8.43;4.18;;;6.90;67.30;;;;;;4985892;28;20057;-80
2023/12/15 01:34:08;;;;;;;10.30;4.25;;;6.90;67.30;;;;;;4999560;28;20034;-79
2023/12/15 01:36:36;;;;;;;8.57;3.92;;;6.80;67.20;;;;;;4997942;28;20889;-80
2023/12/15 01:39:02;;;;;;;11.18;4.10;;;6.80;67.20;;;;;;4969517;28;20030;-80
2023/12/15 01:41:30;;;;;;;11.00;3.95;;;6.80;67.20;;;;;;4979666;28;20073;-79
2023/12/15 01:43:56;;;;;;;12.02;4.20;;;6.80;67.20;;;;;;4995038;28;20738;-79
2023/12/15 01:46:22;;;;;;;8.55;3.72;;;6.80;67.20;;;;;;4997778;28;20057;-79
2023/12/15 01:48:48;;;;;;;8.20;3.65;;;6.80;67.20;;;;;;5000013;28;20514;-81
2023/12/15 01:51:15;;;;;;;7.18;3.70;;;6.80;67.30;;;;;;4997300;28;20061;-82
2023/12/15 01:53:42;;;;;;;8.48;3.03;;;6.80;67.30;;;;;;4991113;28;20236;-82
2023/12/15 01:56:09;;;;;;;9.88;3.67;;;6.70;67.20;;;;;;4983029;28;20196;-82
2023/12/15 01:58:35;;;;;;;7.45;3.42;;;6.70;67.20;;;;;;4967748;28;20070;-83
2023/12/15 02:01:01;;;;;;;7.68;3.40;;;6.70;67.20;;;;;;4999025;28;20029;-82
2023/12/15 02:03:27;;;;;;;8.80;3.10;;;6.70;67.30;;;;;;4997562;28;20026;-81
2023/12/15 02:05:53;;;;;;;8.23;3.50;;;6.80;67.50;;;;;;4998634;28;20034;-80
2023/12/15 02:08:19;;;;;;;8.40;3.30;;;6.80;67.50;;;;;;4996037;28;20107;-81
2023/12/15 02:10:45;;;;;;;8.98;3.88;;;6.80;67.50;;;;;;4979084;28;20289;-80
2023/12/15 02:13:12;;;;;;;6.53;3.47;;;6.80;68.10;;;;;;4984644;28;20096;-80
2023/12/15 02:15:38;;;;;;;5.88;2.75;;;6.80;67.60;;;;;;4984366;28;20029;-80
2023/12/15 02:18:04;;;;;;;6.70;3.45;;;6.70;67.40;;;;;;5003500;28;20325;-81
2023/12/15 02:20:31;;;;;;;7.95;3.33;;;6.80;67.60;;;;;;4999581;28;20030;-80
2023/12/15 02:22:59;;;;;;;9.60;3.10;;;6.80;67.60;;;;;;4996032;28;20030;-81
2023/12/15 02:25:25;;;;;;;6.47;3.00;;;6.80;67.70;;;;;;5000584;28;20033;-81
2023/12/15 02:27:53;;;;;;;7.47;3.00;;;6.80;67.70;;;;;;5003456;28;20366;-82
2023/12/15 02:30:19;;;;;;;7.53;3.40;;;6.80;67.70;;;;;;4995146;28;20077;-82
2023/12/15 02:32:48;;;;;;;9.57;3.70;;;6.80;67.70;;;;;;5001839;28;20496;-81
2023/12/15 02:35:16;;;;;;;9.48;4.25;;;6.80;67.70;;;;;;4999176;28;20091;-81
2023/12/15 02:37:43;;;;;;;6.35;3.10;;;6.80;67.70;;;;;;5001734;28;20030;-80
2023/12/15 02:40:10;;;;;;;9.95;3.95;;;6.80;67.80;;;;;;4999165;28;20041;-81
2023/12/15 02:42:35;;;;;;;8.38;4.32;;;6.90;67.90;;;;;;5002463;28;20125;-81
2023/12/15 02:45:02;;;;;;;7.18;3.33;;;6.90;67.90;;;;;;4994251;28;20037;-81
2023/12/15 02:47:28;;;;;;;9.45;3.75;;;6.80;67.80;;;;;;5042549;23;20535;-95
2023/12/15 02:49:55;;;;;;;7.97;3.35;;;6.90;68.00;;;;;;5016147;28;20507;-95
2023/12/15 02:52:31;;;;;;;6.53;3.58;;;6.90;68.00;;;;;;5025581;28;20041;-91
2023/12/15 02:55:22;;;;;;;9.32;4.18;;;6.90;68.00;;;;;;5053642;28;20067;-84
2023/12/15 02:57:48;;;;;;;12.73;3.47;;;6.90;68.00;;;;;;5055890;28;20026;-91
2023/12/15 03:00:14;;;;;;;5.90;3.42;;;6.90;68.00;;;;;;5010032;28;20031;-91
2023/12/15 03:02:40;;;;;;;12.38;3.75;;;6.90;68.00;;;;;;5033589;28;20120;-92
2023/12/15 03:05:08;;;;;;;8.43;3.33;;;6.90;68.00;;;;;;5031237;28;20446;-93
2023/12/15 03:07:35;;;;;;;9.50;3.70;;;6.90;68.10;;;;;;5034446;28;20037;-95
2023/12/15 03:10:02;;;;;;;7.50;3.42;;;6.90;68.10;;;;;;5017167;28;20030;-93
2023/12/15 03:12:29;;;;;;;11.02;3.88;;;7.00;68.30;;;;;;5010644;28;20034;-93
2023/12/15 03:14:56;;;;;;;9.07;3.92;;;6.90;68.10;;;;;;5016388;28;20021;-93
2023/12/15 03:17:22;;;;;;;9.07;3.92;;;6.90;68.10;;;;;;5012332;28;20022;-96
2023/12/15 03:19:49;;;;;;;7.47;3.22;;;7.00;68.30;;;;;;4996730;28;20508;-94
2023/12/15 03:22:17;;;;;;;7.40;3.60;;;7.00;68.30;;;;;;5015284;28;20048;-94
2023/12/15 03:24:42;;;;;;;11.82;3.60;;;7.00;68.30;;;;;;5015094;28;20029;-95
2023/12/15 03:27:08;;;;;;;8.98;3.50;;;7.00;68.30;;;;;;5013759;28;20057;-93
2023/12/15 03:29:34;;;;;;;7.20;4.45;;;7.00;68.30;;;;;;5011938;28;20092;-86
2023/12/15 03:32:00;;;;;;;8.77;3.78;;;7.00;68.30;;;;;;5012540;28;20026;-88
2023/12/15 03:34:26;;;;;;;7.43;3.15;;;7.00;68.40;;;;;;5001693;28;20065;-89
2023/12/15 03:36:52;;;;;;;6.47;3.65;;;7.00;68.40;;;;;;5003731;28;20396;-91
2023/12/15 03:39:19;;;;;;;9.00;3.92;;;7.00;68.40;;;;;;5010618;28;20034;-88
2023/12/15 03:41:45;;;;;;;9.88;3.97;;;7.00;68.40;;;;;;5012663;28;20044;-90
2023/12/15 03:44:11;;;;;;;11.05;3.67;;;7.00;68.50;;;;;;4991599;28;20030;-89
2023/12/15 03:46:37;;;;;;;10.25;4.07;;;7.00;68.50;;;;;;4995446;28;20046;-89
2023/12/15 03:49:05;;;;;;;9.50;4.35;;;7.00;68.50;;;;;;5011072;28;20084;-87
2023/12/15 03:51:31;;;;;;;9.20;3.65;;;7.00;68.50;;;;;;5014824;28;20116;-90
2023/12/15 03:53:58;;;;;;;8.70;3.78;;;7.00;68.50;;;;;;4988429;28;20041;-91
2023/12/15 03:56:25;;;;;;;9.68;3.90;;;7.00;68.50;;;;;;5011276;28;20042;-94
2023/12/15 03:58:52;;;;;;;10.05;3.63;;;7.00;68.60;;;;;;5008754;28;20040;-95
2023/12/15 04:01:18;;;;;;;11.57;3.78;;;7.10;68.70;;;;;;5009194;28;20038;-96
2023/12/15 04:03:47;;;;;;;9.48;3.28;;;7.10;68.70;;;;;;5020867;28;20029;-96
2023/12/15 04:06:13;;;;;;;10.57;3.90;;;7.10;68.70;;;;;;4985848;28;20045;-96
2023/12/15 04:08:43;;;;;;;9.82;3.80;;;7.10;68.70;;;;;;5014288;28;20048;-96
2023/12/15 04:11:10;;;;;;;8.35;4.28;;;7.10;68.80;;;;;;4997269;28;20029;-96
2023/12/15 04:13:36;;;;;;;9.98;4.10;;;7.10;68.80;;;;;;5008538;28;20046;-94
2023/12/15 04:16:05;;;;;;;7.72;4.00;;;7.10;68.80;;;;;;5003444;28;20037;-95
2023/12/15 04:18:32;;;;;;;9.45;3.83;;;7.10;68.80;;;;;;5012972;28;20030;-95
2023/12/15 04:21:00;;;;;;;9.25;3.88;;;7.10;68.80;;;;;;4989070;28;20026;-87
2023/12/15 04:23:27;;;;;;;9.73;4.13;;;7.10;68.90;;;;;;5005313;28;20113;-94
2023/12/15 04:25:57;;;;;;;11.93;5.15;;;7.10;68.90;;;;;;5006634;28;20022;-93
2023/12/15 04:28:25;;;;;;;7.53;3.75;;;7.10;68.90;;;;;;5010031;28;20045;-95
2023/12/15 04:30:53;;;;;;;8.95;4.10;;;7.10;68.90;;;;;;5008729;28;20042;-95
2023/12/15 04:33:20;;;;;;;13.35;4.45;;;7.10;68.90;;;;;;5005480;28;20022;-96
2023/12/15 04:35:47;;;;;;;10.95;3.83;;;7.10;68.90;;;;;;4986305;28;20048;-96
2023/12/15 04:38:13;;;;;;;9.27;4.22;;;7.10;68.90;;;;;;5011611;28;20026;-95
2023/12/15 04:40:42;;;;;;;9.88;4.57;;;7.10;68.90;;;;;;5014602;28;20381;-96
2023/12/15 04:43:09;;;;;;;10.18;3.72;;;7.10;68.90;;;;;;4996206;28;20277;-94
2023/12/15 04:45:35;;;;;;;7.15;3.65;;;7.10;69.00;;;;;;4991002;28;20037;-96
2023/12/15 04:48:01;;;;;;;8.32;3.45;;;7.10;68.90;;;;;;5013032;28;20136;-93
2023/12/15 04:50:27;;;;;;;7.18;3.80;;;7.10;69.00;;;;;;5005181;28;20369;-92
2023/12/15 04:52:53;;;;;;;7.80;3.85;;;7.10;69.00;;;;;;5004265;28;20745;-95
2023/12/15 04:55:21;;;;;;;12.50;5.47;;;7.10;69.00;;;;;;4986817;28;20037;-96
2023/12/15 04:57:47;;;;;;;7.10;4.00;;;7.10;69.00;;;;;;5018578;28;20034;-95
2023/12/15 05:00:14;;;;;;;8.90;4.18;;;7.10;69.00;;;;;;5001199;28;20046;-96
2023/12/15 05:02:41;;;;;;;7.18;3.60;;;7.10;69.00;;;;;;5012037;28;20065;-95
2023/12/15 05:05:07;;;;;;;6.53;4.28;;;7.10;69.00;;;;;;5011888;28;20061;-96
2023/12/15 05:07:34;;;;;;;7.72;3.75;;;7.00;68.90;;;;;;5000498;28;20038;-96
2023/12/15 05:10:03;;;;;;;8.18;4.15;;;7.10;69.10;;;;;;4996737;28;20034;-95
2023/12/15 05:12:33;;;;;;;10.23;3.67;;;7.10;69.10;;;;;;5005649;28;20076;-95
2023/12/15 05:15:03;;;;;;;8.38;3.92;;;7.00;68.90;;;;;;5009186;28;20026;-92
2023/12/15 05:17:31;;;;;;;8.02;3.22;;;7.00;68.90;;;;;;4977482;28;20037;-91
2023/12/15 05:19:57;;;;;;;13.93;4.90;;;7.00;68.90;;;;;;5005158;28;20290;-91
2023/12/15 05:22:24;;;;;;;10.77;4.75;;;7.00;68.90;;;;;;5008227;28;20034;-91
2023/12/15 05:24:53;;;;;;;7.35;3.20;;;7.10;69.10;;;;;;5005401;28;20030;-90
2023/12/15 05:27:20;;;;;;;8.13;4.00;;;7.00;68.90;;;;;;5008263;28;20121;-91
2023/12/15 05:29:48;;;;;;;9.02;3.72;;;7.00;69.00;;;;;;5009359;28;20370;-90
2023/12/15 05:32:16;;;;;;;8.90;3.72;;;7.00;69.00;;;;;;4992664;28;20042;-96
2023/12/15 05:34:45;;;;;;;9.40;4.35;;;7.00;69.00;;;;;;5011402;28;20173;-96
2023/12/15 05:37:15;;;;;;;8.95;3.30;;;7.00;69.00;;;;;;4992356;28;20058;-94
2023/12/15 05:39:44;;;;;;;9.50;3.60;;;7.00;69.00;;;;;;5021431;28;20544;-96
2023/12/15 05:42:12;;;;;;;9.43;3.65;;;7.00;69.00;;;;;;5016092;28;20034;-96
2023/12/15 05:44:42;;;;;;;8.55;3.65;;;7.00;69.00;;;;;;5014263;28;20034;-95
2023/12/15 05:47:12;;;;;;;6.63;3.28;;;7.00;69.00;;;;;;5025003;28;20046;-96
2023/12/15 05:49:39;;;;;;;10.32;4.03;;;7.00;69.00;;;;;;5003597;28;20050;-95
2023/12/15 05:52:08;;;;;;;7.80;3.95;;;7.00;69.00;;;;;;5007396;28;20113;-92
2023/12/15 05:54:41;;;;;;;8.55;3.95;;;7.00;69.10;;;;;;5010363;28;20061;-91
2023/12/15 05:57:07;;;;;;;11.70;4.60;;;7.00;69.00;;;;;;5010704;28;20030;-90
2023/12/15 05:59:35;;;;;;;8.80;3.67;;;7.00;69.00;;;;;;5012755;28;20083;-91
2023/12/15 06:02:01;;;;;;;9.90;4.30;;;7.00;69.10;;;;;;4993671;28;20030;-92
2023/12/15 06:04:28;;;;;;;11.68;4.35;;;7.00;69.10;;;;;;5019448;28;20042;-91
2023/12/15 06:06:54;;;;;;;12.45;4.10;;;7.00;69.10;;;;;;5023776;28;20018;-91
2023/12/15 06:09:20;;;;;;;8.75;3.70;;;7.00;69.10;;;;;;5023322;28;20048;-85
2023/12/15 06:11:48;;;;;;;7.05;4.63;;;6.90;69.00;;;;;;5014966;28;20052;-86
2023/12/15 06:14:14;;;;;;;11.20;4.20;;;7.00;69.20;;;;;;5004804;28;20023;-85
2023/12/15 06:16:42;;;;;;;11.20;4.53;;;7.00;69.20;;;;;;5011665;28;20018;-86
2023/12/15 06:19:09;;;;;;;7.47;3.88;;;7.00;69.20;;;;;;5026647;28;20010;-88
2023/12/15 06:21:35;;;;;;;10.32;4.07;;;7.00;69.20;;;;;;5012087;28;20073;-94
2023/12/15 06:24:03;;;;;;;11.13;4.32;;;7.00;69.20;;;;;;5023699;28;20030;-92
2023/12/15 06:26:29;;;;;;;8.20;3.97;;;7.00;69.20;;;;;;5012092;28;20030;-95
2023/12/15 06:28:55;;;;;;;9.45;4.60;;;7.00;69.20;;;;;;5011203;28;20424;-94
2023/12/15 06:31:29;;;;;;;10.02;4.80;;;7.00;69.20;;;;;;5011860;28;20018;-95
2023/12/15 06:33:55;;;;;;;8.30;4.53;;;7.00;69.20;;;;;;5004214;28;20065;-94
2023/12/15 06:36:28;;;;;;;12.38;4.78;;;7.00;69.70;;;;;;4987638;28;20396;-96
2023/12/15 06:38:56;;;;;;;11.82;4.30;;;7.00;69.20;;;;;;4983251;28;20033;-95
2023/12/15 06:41:25;;;;;;;10.18;4.13;;;7.10;69.40;;;;;;5006772;28;20048;-96
2023/12/15 06:43:51;;;;;;;7.50;3.83;;;7.00;69.20;;;;;;4988120;28;20088;-96
2023/12/15 06:46:19;;;;;;;13.25;4.95;;;7.10;69.50;;;;;;5010048;28;20053;-96
2023/12/15 06:48:45;;;;;;;10.30;5.35;;;7.10;69.50;;;;;;4994174;28;20034;-92
2023/12/15 06:51:10;;;;;;;9.68;4.50;;;7.10;69.50;;;;;;4993560;28;20614;-88
2023/12/15 06:53:36;;;;;;;11.30;4.43;;;7.10;69.50;;;;;;5009263;28;20026;-90
2023/12/15 06:56:05;;;;;;;11.05;4.65;;;7.10;69.50;;;;;;5001175;28;20053;-92
2023/12/15 06:58:34;;;;;;;14.43;6.35;;;7.10;69.60;;;;;;5009447;28;20031;-90
2023/12/15 07:01:03;;;;;;;13.50;5.13;;;7.10;69.70;;;;;;5006055;28;20050;-89
2023/12/15 07:03:33;;;;;;;13.70;5.95;;;7.20;69.90;;;;;;5003126;28;20049;-89
2023/12/15 07:06:01;;;;;;;11.80;4.35;;;7.20;69.90;;;;;;5002943;28;20038;-94
2023/12/15 07:08:28;;;;;;;9.38;4.47;;;7.20;69.90;;;;;;5019183;28;20061;-89
2023/12/15 07:10:55;;;;;;;24.10;6.35;;;7.20;70.00;;;;;;5006417;28;20030;-88
2023/12/15 07:13:22;;;;;;;19.52;5.45;;;7.20;70.00;;;;;;5015346;28;20038;-91
2023/12/15 07:15:49;;;;;;;16.55;4.93;;;7.20;70.10;;;;;;4987096;28;20503;-85
2023/12/15 07:18:16;;;;;;;16.45;5.40;;;7.30;70.40;;;;;;4998779;28;20042;-88
2023/12/15 07:20:42;;;;;;;14.57;5.10;;;7.30;70.50;;;;;;5003086;28;20030;-85
2023/12/15 07:23:07;;;;;;;11.43;5.65;;;7.40;70.80;;;;;;4984633;28;20052;-87
2023/12/15 07:25:33;;;;;;;14.38;4.63;;;7.50;71.10;;;;;;4994886;28;20076;-86
2023/12/15 07:28:01;;;;;;;10.98;4.85;;;7.50;71.10;;;;;;5003051;28;20033;-86
2023/12/15 07:30:29;;;;;;;11.90;4.55;;;7.60;71.40;;;;;;4998091;28;20048;-86
2023/12/15 07:32:56;;;;;;;12.43;4.53;;;7.70;71.70;;;;;;4976676;28;20027;-86
2023/12/15 07:35:23;;;;;;;15.65;5.45;;;7.70;71.70;;;;;;4993674;28;20049;-86
2023/12/15 07:37:51;;;;;;;14.60;5.95;;;7.80;71.90;;;;;;4995385;28;20587;-90
2023/12/15 07:40:17;;;;;;;12.27;3.78;;;7.90;72.10;;;;;;5003797;28;20045;-88
2023/12/15 07:42:43;;;;;;;16.88;5.00;;;7.90;72.10;;;;;;5006870;28;20026;-88
2023/12/15 07:45:12;;;;;;;10.10;4.97;;;8.00;72.40;;;;;;4998056;28;20459;-94
2023/12/15 07:47:39;;;;;;;8.95;4.13;;;8.00;72.90;;;;;;4999086;28;20046;-88
2023/12/15 07:50:05;;;;;;;15.18;4.38;;;8.10;72.50;;;;;;4992836;28;20038;-88
2023/12/15 07:52:32;;;;;;;11.40;4.15;;;8.20;72.70;;;;;;4999956;28;20028;-87
2023/12/15 07:54:58;;;;;;;10.85;4.00;;;8.20;72.70;;;;;;5004955;28;20038;-87
2023/12/15 07:57:25;;;;;;;9.65;4.22;;;8.20;72.70;;;;;;5003656;28;20600;-88
2023/12/15 07:59:51;;;;;;;8.32;3.85;;;8.30;72.80;;;;;;5000057;28;20034;-87
2023/12/15 08:02:20;;;;;;;12.55;4.20;;;8.30;72.80;;;;;;4998416;28;20036;-87
2023/12/15 08:04:46;;;;;;;8.10;4.10;;;8.40;72.90;;;;;;4994443;28;20034;-87
2023/12/15 08:07:12;;;;;;;8.20;4.47;;;8.50;73.00;;;;;;5001317;28;20507;-85
2023/12/15 08:09:38;;;;;;;8.93;4.35;;;8.50;73.00;;;;;;5011207;28;20415;-84
2023/12/15 08:12:05;;;;;;;8.70;4.07;;;8.60;73.10;;;;;;5005574;28;20030;-85
2023/12/15 08:14:31;;;;;;;9.02;4.55;;;8.60;73.00;;;;;;4999930;28;20060;-88
2023/12/15 08:16:58;;;;;;;8.10;4.32;;;8.70;73.20;;;;;;5006454;28;20022;-89
2023/12/15 08:19:24;;;;;;;8.65;3.75;;;8.70;73.10;;;;;;4982392;28;20419;-88
2023/12/15 08:21:59;;;;;;;11.63;4.40;;;8.80;73.20;;;;;;4983808;28;20030;-96
2023/12/15 08:24:27;;;;;;;9.98;3.67;;;8.80;73.20;;;;;;5012445;28;20050;-95
2023/12/15 08:26:54;;;;;;;9.20;4.05;;;8.80;73.10;;;;;;4994605;28;20492;-94
2023/12/15 08:29:21;;;;;;;11.35;4.47;;;8.90;73.10;;;;;;5002904;28;20038;-94
2023/12/15 08:31:49;;;;;;;11.27;4.60;;;8.90;73.10;;;;;;4982265;28;20488;-94
2023/12/15 08:34:15;;;;;;;9.98;4.38;;;8.90;72.90;;;;;;4983091;28;20404;-91
2023/12/15 08:36:41;;;;;;;10.35;5.47;;;8.90;72.90;;;;;;5007896;28;20504;-91
2023/12/15 08:39:10;;;;;;;9.90;4.82;;;8.90;72.80;;;;;;4988260;28;20331;-92
2023/12/15 08:41:36;;;;;;;11.15;4.72;;;8.90;72.90;;;;;;5005412;28;20444;-92
2023/12/15 08:44:02;;;;;;;7.30;3.90;;;8.90;72.90;;;;;;4990862;28;20165;-93
2023/12/15 08:46:28;;;;;;;9.55;4.82;;;8.80;72.70;;;;;;5002178;28;20061;-92
2023/12/15 08:48:57;;;;;;;9.15;4.32;;;8.80;72.70;;;;;;4999878;28;20405;-92
2023/12/15 08:51:23;;;;;;;11.18;4.45;;;8.80;72.70;;;;;;5002718;28;20101;-92
2023/12/15 08:53:50;;;;;;;10.88;3.95;;;8.80;72.80;;;;;;4976941;28;20470;-90
2023/12/15 08:56:17;;;;;;;10.40;4.43;;;8.80;72.70;;;;;;5007230;28;20033;-92
2023/12/15 08:58:46;;;;;;;10.85;4.43;;;8.70;72.60;;;;;;5006587;28;20037;-94
2023/12/15 09:01:12;;;;;;;11.02;4.18;;;8.70;72.60;;;;;;4988776;28;20034;-92
2023/12/15 09:03:41;;;;;;;12.05;4.03;;;8.70;72.60;;;;;;5002712;28;20213;-91
2023/12/15 09:06:11;;;;;;;8.27;3.90;;;8.70;72.60;;;;;;5009935;28;20073;-91
2023/12/15 09:08:38;;;;;;;10.35;4.32;;;8.70;72.60;;;;;;4975081;28;20080;-92
2023/12/15 09:11:06;;;;;;;12.82;4.15;;;8.70;72.50;;;;;;4991032;28;20062;-92
2023/12/15 09:13:35;;;;;;;10.15;4.00;;;8.70;72.50;;;;;;4984530;28;20033;-92
2023/12/15 09:16:02;;;;;;;9.18;4.85;;;8.70;72.50;;;;;;4990784;28;20069;-94
2023/12/15 09:18:29;;;;;;;8.65;4.13;;;8.60;72.30;;;;;;4973771;28;20057;-92
2023/12/15 09:20:55;;;;;;;11.82;4.63;;;8.70;72.50;;;;;;5002303;28;20045;-92
2023/12/15 09:23:22;;;;;;;13.85;4.93;;;8.70;72.50;;;;;;4991736;28;20054;-93
2023/12/15 09:25:53;;;;;;;8.73;4.55;;;8.60;72.30;;;;;;5001896;28;20061;-92
2023/12/15 09:28:20;;;;;;;14.05;4.43;;;8.70;72.40;;;;;;4994428;28;20117;-92
2023/12/15 09:30:47;;;;;;;6.18;3.67;;;8.70;72.40;;;;;;5001829;28;20094;-93
2023/12/15 09:33:13;;;;;;;9.88;4.45;;;8.70;72.40;;;;;;4984842;28;20034;-92
2023/12/15 09:35:42;;;;;;;11.57;4.15;;;8.70;72.30;;;;;;5002409;28;20030;-91
2023/12/15 09:38:10;;;;;;;9.93;4.07;;;8.70;72.30;;;;;;4993228;28;20064;-89
2023/12/15 09:40:41;;;;;;;11.55;4.57;;;8.80;72.40;;;;;;5006006;28;20506;-93
2023/12/15 09:43:07;;;;;;;10.48;4.40;;;8.80;72.40;;;;;;4987970;28;20026;-91
2023/12/15 09:45:33;;;;;;;10.88;3.67;;;8.80;72.30;;;;;;5004493;28;20022;-93
2023/12/15 09:48:06;;;;;;;9.75;3.72;;;8.80;72.30;;;;;;5002745;28;20515;-92
2023/12/15 09:50:39;;;;;;;9.20;5.00;;;8.80;72.20;;;;;;5007462;28;20082;-92
2023/12/15 09:53:06;;;;;;;;;;;8.90;72.30;;;;;;5000182;28;20473;-90
2023/12/15 09:55:36;;;;;;;10.35;3.90;;;8.90;72.30;;;;;;4972130;28;19913;-93
2023/12/15 09:58:03;;;;;;;9.88;4.20;;;8.90;72.10;;;;;;4997301;28;20026;-93
2023/12/15 10:00:32;;;;;;;9.82;4.88;;;9.00;72.30;;;;;;5003570;28;20034;-89
2023/12/15 10:02:59;;;;;;;9.30;3.88;;;9.00;72.30;;;;;;5003761;28;20034;-93
2023/12/15 10:05:27;;;;;;;9.10;3.65;;;9.00;72.20;;;;;;5008731;28;20138;-90
2023/12/15 10:07:59;;;;;;;16.08;5.13;;;9.00;72.20;;;;;;5007815;28;20109;-89
2023/12/15 10:10:26;;;;;;;13.15;5.00;;;9.10;72.30;;;;;;4997817;28;20054;-89
2023/12/15 10:12:56;;;;;;;9.23;4.20;;;9.10;72.30;;;;;;4987262;28;20042;-90
2023/12/15 10:15:22;;;;;;;9.63;3.97;;;9.20;72.40;;;;;;5000335;28;20046;-93
2023/12/15 10:17:49;;;;;;;7.60;4.55;;;9.20;72.40;;;;;;4983330;28;20041;-93
2023/12/15 10:20:16;;;;;;;6.30;3.67;;;9.30;72.50;;;;;;4987700;28;21002;-92
2023/12/15 10:22:42;;;;;;;13.00;4.68;;;9.30;72.40;;;;;;5009577;28;20030;-92
2023/12/15 10:25:23;;;;;;;8.45;3.75;;;9.40;72.50;;;;;;4984878;28;20041;-90
2023/12/15 10:27:50;;;;;;;8.23;3.90;;;9.50;72.60;;;;;;4997670;28;20038;-93
2023/12/15 10:30:25;;;;;;;13.40;4.30;;;9.50;72.50;;;;;;4976705;28;20391;-94
2023/12/15 10:32:57;;;;;;;8.90;3.42;;;9.60;72.60;;;;;;5000775;28;20034;-95
2023/12/15 10:35:23;;;;;;;10.15;4.40;;;9.70;72.60;;;;;;5003150;28;20040;-94
2023/12/15 10:37:52;;;;;;;17.48;4.30;;;9.70;72.50;;;;;;4988180;28;20030;-94
2023/12/15 10:40:19;;;;;;;9.98;4.38;;;9.70;72.40;;;;;;5002477;28;20040;-95
2023/12/15 10:42:47;;;;;;;10.30;4.03;;;9.80;72.50;;;;;;5007889;28;20102;-94
2023/12/15 10:45:14;;;;;;;8.95;3.70;;;9.90;72.60;;;;;;4999281;28;20456;-92
2023/12/15 10:47:41;;;;;;;9.88;4.43;;;9.90;72.50;;;;;;5009379;28;20072;-94
2023/12/15 10:50:09;;;;;;;10.07;3.35;;;10.00;72.50;;;;;;4997637;28;20042;-95
2023/12/15 10:52:40;;;;;;;10.10;4.78;;;10.00;72.40;;;;;;5006899;28;20120;-93
2023/12/15 10:55:07;;;;;;;11.48;4.07;;;10.10;72.50;;;;;;5001862;28;20045;-94
2023/12/15 10:57:41;;;;;;;10.57;3.70;;;10.20;72.50;;;;;;5000175;28;20033;-94
2023/12/15 11:00:08;;;;;;;11.25;3.25;;;10.20;72.40;;;;;;5007703;28;20041;-94
2023/12/15 11:02:37;;;;;;;10.63;3.08;;;10.30;72.40;;;;;;4999590;28;20080;-90
2023/12/15 11:05:03;;;;;;;13.73;4.20;;;10.30;72.40;;;;;;5000914;28;20499;-95
2023/12/15 11:07:30;;;;;;;9.75;3.75;;;10.40;72.50;;;;;;4989652;28;20034;-94
2023/12/15 11:09:59;;;;;;;11.10;3.47;;;10.50;72.50;;;;;;5001192;28;20453;-92
2023/12/15 11:12:36;;;;;;;10.75;3.05;;;10.50;72.40;;;;;;4988272;28;20480;-90
2023/12/15 11:15:07;;;;;;;8.98;3.65;;;10.60;72.50;;;;;;5004099;28;20030;-90
2023/12/15 11:17:37;;;;;;;9.57;3.25;;;10.60;72.40;;;;;;5001082;28;20030;-93
2023/12/15 11:20:06;;;;;;;9.30;3.00;;;10.70;72.50;;;;;;5000382;28;20037;-93
2023/12/15 11:22:54;;;;;;;10.18;3.30;;;10.80;72.50;;;;;;4996533;28;20021;-92
2023/12/15 11:25:24;;;;;;;10.85;3.53;;;10.80;72.50;;;;;;4984431;28;20041;-93
2023/12/15 11:28:09;;;;;;;8.05;2.90;;;10.80;72.30;;;;;;4997322;28;20053;-90
2023/12/15 11:30:40;;;;;;;9.70;2.80;;;10.90;72.40;;;;;;4992563;28;20041;-90
2023/12/15 11:33:22;;;;;;;11.60;3.80;;;11.00;72.50;;;;;;4998632;28;20073;-92
2023/12/15 11:36:06;;;;;;;18.67;3.92;;;11.00;72.40;;;;;;4996039;28;20060;-92
2023/12/15 11:38:34;;;;;;;9.20;3.10;;;11.10;72.50;;;;;;5003022;28;20045;-93
2023/12/15 11:41:04;;;;;;;10.82;2.83;;;11.10;72.30;;;;;;4999484;28;20041;-94
2023/12/15 11:43:33;;;;;;;10.82;2.85;;;11.20;72.40;;;;;;4983278;28;20530;-94
2023/12/15 11:46:00;;;;;;;9.40;3.03;;;11.20;72.30;;;;;;4969646;28;20127;-91
2023/12/15 11:48:34;;;;;;;12.50;3.60;;;11.30;72.40;;;;;;5001322;28;20049;-93
2023/12/15 11:51:11;;;;;;;9.95;3.25;;;11.30;72.30;;;;;;4956110;28;20536;-90
2023/12/15 11:53:47;;;;;;;6.97;2.30;;;11.40;72.30;;;;;;4999630;28;20062;-90
2023/12/15 11:56:14;;;;;;;10.85;4.05;;;11.40;72.20;;;;;;5001415;28;20034;-91
2023/12/15 11:58:41;;;;;;;5.88;2.83;;;11.40;72.10;;;;;;5003034;28;20086;-92
2023/12/15 12:01:08;;;;;;;10.98;3.38;;;11.50;72.20;;;;;;4968774;28;20550;-93
2023/12/15 12:03:36;;;;;;;8.38;2.45;;;11.60;72.30;;;;;;5001878;28;20034;-92
2023/12/15 12:06:08;;;;;;;12.23;3.63;;;11.60;72.30;;;;;;4999718;28;20026;-94
2023/12/15 12:08:37;;;;;;;10.32;3.30;;;11.60;72.20;;;;;;5008364;28;20041;-88
2023/12/15 12:11:06;;;;;;;12.30;3.22;;;11.60;72.10;;;;;;5007713;28;20034;-94
2023/12/15 12:13:37;;;;;;;13.63;2.70;;;11.60;72.10;;;;;;4981332;28;20048;-89
2023/12/15 12:16:07;;;;;;;8.35;2.97;;;11.60;72.00;;;;;;5005517;28;20076;-94
2023/12/15 12:18:33;;;;;;;11.23;2.72;;;11.60;71.90;;;;;;4988115;28;20030;-94
2023/12/15 12:21:07;;;;;;;8.32;2.75;;;11.70;72.10;;;;;;4990661;28;20034;-93
2023/12/15 12:23:36;;;;;;;8.25;2.85;;;11.70;71.90;;;;;;5004616;28;20018;-95
2023/12/15 12:26:05;;;;;;;8.60;3.17;;;11.70;71.90;;;;;;4980839;28;20025;-88
2023/12/15 12:28:51;;;;;;;10.77;2.60;;;11.70;71.80;;;;;;4994858;28;20038;-93
2023/12/15 12:31:17;;;;;;;9.23;2.80;;;11.80;71.90;;;;;;5015275;28;20108;-93
2023/12/15 12:33:46;;;;;;;6.68;2.30;;;11.80;71.80;;;;;;4995612;28;20049;-93
2023/12/15 12:36:17;;;;;;;8.07;2.50;;;11.80;71.70;;;;;;5013379;28;20069;-94
2023/12/15 12:38:47;;;;;;;8.15;3.10;;;11.90;71.70;;;;;;4980625;28;20030;-91
2023/12/15 12:41:13;;;;;;;11.98;3.50;;;11.90;71.60;;;;;;5005279;28;20042;-90
2023/12/15 12:43:41;;;;;;;5.75;2.42;;;12.00;71.60;;;;;;4998743;28;20494;-90
2023/12/15 12:46:11;;;;;;;9.73;2.78;;;12.00;71.50;;;;;;4999608;28;20300;-92
2023/12/15 12:48:37;;;;;;;10.23;2.83;;;12.00;71.30;;;;;;4980520;28;20081;-91
2023/12/15 12:51:05;;;;;;;6.28;2.15;;;12.00;71.20;;;;;;4983576;28;20045;-87
2023/12/15 12:53:32;;;;;;;5.13;1.95;;;12.10;71.30;;;;;;5000117;28;20034;-93